createdAt,value
2023-03-21T00:01:03.237Z,9.66
2023-03-21T00:06:11.302Z,9.68
2023-03-21T00:11:17.185Z,9.67
2023-03-21T00:16:30.555Z,9.64
2023-03-21T00:22:05.424Z,9.61
2023-03-21T00:26:39.370Z,9.60
2023-03-21T00:31:45.046Z,9.61
2023-03-21T00:36:50.931Z,9.66
2023-03-21T00:41:56.434Z,9.65
2023-03-21T00:47:07.794Z,9.68
2023-03-21T00:52:20.136Z,9.63
2023-03-21T00:57:22.124Z,9.69
2023-03-21T01:02:27.637Z,9.67
2023-03-21T01:07:34.904Z,9.69
2023-03-21T01:12:40.310Z,9.69
2023-03-21T01:17:45.714Z,9.66
2023-03-21T01:22:51.412Z,9.61
2023-03-21T01:27:56.957Z,9.59
2023-03-21T01:33:03.195Z,9.65
2023-03-21T01:38:10.220Z,9.65
2023-03-21T01:43:23.019Z,9.67
2023-03-21T01:48:30.101Z,9.67
2023-03-21T01:53:39.735Z,9.53
2023-03-21T01:58:48.001Z,9.66
2023-03-21T02:04:04.133Z,9.63
2023-03-21T02:09:14.328Z,9.47
2023-03-21T02:14:28.919Z,9.56
2023-03-21T02:19:47.623Z,9.51
2023-03-21T02:25:04.300Z,9.51
2023-03-21T02:30:49.250Z,9.53
2023-03-21T02:36:03.127Z,9.54
2023-03-21T02:41:18.049Z,9.53
2023-03-21T02:46:18.177Z,9.55
2023-03-21T02:51:27.521Z,9.52
2023-03-21T02:56:34.402Z,9.49
2023-03-21T03:01:40.845Z,9.51
2023-03-21T03:07:01.935Z,9.59
2023-03-21T03:12:11.281Z,9.66
2023-03-21T03:17:27.951Z,9.70
2023-03-21T03:22:47.270Z,9.77
2023-03-21T03:27:56.200Z,9.79
2023-03-21T03:33:04.287Z,9.76
2023-03-21T03:38:11.879Z,9.84
2023-03-21T03:43:29.513Z,9.76
2023-03-21T03:48:38.428Z,9.77
2023-03-21T03:53:52.846Z,9.71
2023-03-21T03:58:59.319Z,9.68
2023-03-21T04:04:13.203Z,9.67
2023-03-21T04:09:21.016Z,9.70
2023-03-21T04:14:25.560Z,9.64
2023-03-21T04:19:31.415Z,9.64
2023-03-21T04:24:37.622Z,9.65
2023-03-21T04:29:43.833Z,9.67
2023-03-21T04:34:52.736Z,9.71
2023-03-21T04:39:58.676Z,9.75
2023-03-21T04:45:05.695Z,9.81
2023-03-21T04:50:13.795Z,9.89
2023-03-21T04:55:20.960Z,9.88
2023-03-21T05:00:27.305Z,9.85
2023-03-21T05:05:32.851Z,9.78
2023-03-21T05:10:38.450Z,9.80
2023-03-21T05:15:44.054Z,9.87
2023-03-21T05:20:51.424Z,9.86
2023-03-21T05:25:57.160Z,9.81
2023-03-21T05:31:05.771Z,9.64
2023-03-21T05:36:12.716Z,9.56
2023-03-21T05:41:21.549Z,9.55
2023-03-21T05:46:27.211Z,9.55
2023-03-21T05:51:33.535Z,9.49
2023-03-21T05:56:39.511Z,9.52
2023-03-21T06:01:47.079Z,9.49
2023-03-21T06:06:53.733Z,9.54
2023-03-21T06:12:00.308Z,9.55
2023-03-21T06:17:10.587Z,9.57
2023-03-21T06:22:17.956Z,9.63
2023-03-21T06:27:24.657Z,9.67
2023-03-21T06:32:33.532Z,9.71
2023-03-21T06:37:40.757Z,9.66
2023-03-21T06:42:47.546Z,9.55
2023-03-21T06:47:53.474Z,9.58
2023-03-21T06:53:03.365Z,9.66
2023-03-21T06:58:10.594Z,9.68
2023-03-21T07:03:17.009Z,9.80
2023-03-21T07:08:23.750Z,9.84
2023-03-21T07:13:29.462Z,9.76
2023-03-21T07:18:37.073Z,9.82
2023-03-21T07:23:42.664Z,10.00
2023-03-21T07:28:48.228Z,10.05
2023-03-21T07:33:54.357Z,10.13
2023-03-21T07:39:00.422Z,10.36
2023-03-21T07:49:13.272Z,10.54
2023-03-21T07:54:20.406Z,10.59
2023-03-21T07:59:26.162Z,10.56
2023-03-21T08:04:32.398Z,10.55
2023-03-21T08:09:38.356Z,10.72
2023-03-21T08:14:44.626Z,10.92
2023-03-21T08:19:50.394Z,10.96
2023-03-21T08:24:55.976Z,11.19
2023-03-21T08:30:02.722Z,11.30
2023-03-21T08:35:10.493Z,11.38
2023-03-21T08:40:18.736Z,11.80
2023-03-21T08:45:25.399Z,11.97
2023-03-21T08:50:31.870Z,12.14
2023-03-21T08:55:38.111Z,12.24
2023-03-21T09:00:43.779Z,12.29
2023-03-21T09:05:50.148Z,12.60
2023-03-21T09:10:56.354Z,12.80
2023-03-21T09:16:02.893Z,12.30
2023-03-21T09:21:12.316Z,12.31
2023-03-21T09:26:18.503Z,12.39
2023-03-21T09:31:25.060Z,12.58
2023-03-21T09:36:32.561Z,13.12
2023-03-21T09:41:58.926Z,13.24
2023-03-21T09:47:30.097Z,13.31
2023-03-21T09:52:51.974Z,12.98
2023-03-21T09:58:20.318Z,13.07
2023-03-21T10:03:28.408Z,12.92
2023-03-21T10:08:42.177Z,12.77
2023-03-21T10:13:56.327Z,12.52
2023-03-21T10:19:05.273Z,12.78
2023-03-21T10:24:21.944Z,12.62
2023-03-21T10:29:30.540Z,12.93
2023-03-21T10:34:42.189Z,12.68
2023-03-21T10:39:50.576Z,12.58
2023-03-21T10:44:57.664Z,12.57
2023-03-21T10:50:08.424Z,12.63
2023-03-21T10:55:31.338Z,12.78
2023-03-21T11:00:40.160Z,13.15
2023-03-21T11:05:46.401Z,13.06
2023-03-21T11:11:04.097Z,13.15
2023-03-21T11:16:21.637Z,13.29
2023-03-21T11:21:29.617Z,13.36
2023-03-21T11:26:38.811Z,13.06
2023-03-21T11:31:45.135Z,13.15
2023-03-21T11:36:52.376Z,13.19
2023-03-21T11:41:58.041Z,13.48
2023-03-21T11:47:03.733Z,13.31
2023-03-21T11:52:23.642Z,13.20
2023-03-21T11:57:41.079Z,13.50
2023-03-21T12:03:13.965Z,13.37
2023-03-21T12:08:24.960Z,13.17
2023-03-21T12:13:49.847Z,13.24
2023-03-21T12:19:22.441Z,13.51
2023-03-21T12:24:58.863Z,13.63
2023-03-21T12:30:25.439Z,13.37
2023-03-21T12:35:52.215Z,13.27
2023-03-21T12:41:04.143Z,13.28
2023-03-21T12:46:23.610Z,13.26
2023-03-21T12:51:34.970Z,13.05
2023-03-21T12:56:43.615Z,13.03
2023-03-21T13:01:52.058Z,13.17
2023-03-21T13:06:59.829Z,13.24
2023-03-21T13:12:14.464Z,13.39
2023-03-21T13:17:26.068Z,13.11
2023-03-21T13:22:33.084Z,13.20
2023-03-21T13:27:40.056Z,13.24
2023-03-21T13:32:48.253Z,13.22
2023-03-21T13:38:05.605Z,13.28
2023-03-21T13:43:30.844Z,13.24
2023-03-21T13:48:57.899Z,13.03
2023-03-21T13:54:10.339Z,13.09
2023-03-21T13:59:18.815Z,13.12
2023-03-21T14:04:32.225Z,13.09
2023-03-21T14:09:46.633Z,13.19
2023-03-21T14:14:56.380Z,13.29
2023-03-21T14:20:12.543Z,13.56
2023-03-21T14:25:21.149Z,13.71
2023-03-21T14:30:29.830Z,13.70
2023-03-21T14:35:37.060Z,13.93
2023-03-21T14:40:46.278Z,13.81
2023-03-21T14:45:54.927Z,13.68
2023-03-21T14:51:04.116Z,14.00
2023-03-21T14:56:12.745Z,13.94
2023-03-21T15:01:34.988Z,14.20
2023-03-21T15:06:49.625Z,14.30
2023-03-21T15:11:56.486Z,14.07
2023-03-21T15:17:05.563Z,14.05
2023-03-21T15:22:32.106Z,14.06
2023-03-21T15:27:40.995Z,14.09
2023-03-21T15:32:47.445Z,13.76
2023-03-21T15:37:59.135Z,13.94
2023-03-21T15:43:19.871Z,13.95
2023-03-21T15:48:28.467Z,13.91
2023-03-21T15:53:37.216Z,13.56
2023-03-21T15:58:46.304Z,13.51
2023-03-21T16:04:01.924Z,13.54
2023-03-21T16:09:14.312Z,13.59
2023-03-21T16:14:21.677Z,13.43
2023-03-21T16:19:28.740Z,13.24
2023-03-21T16:24:34.209Z,13.39
2023-03-21T16:29:39.643Z,13.51
2023-03-21T16:34:46.514Z,13.16
2023-03-21T16:39:52.064Z,13.14
2023-03-21T16:44:57.832Z,13.16
2023-03-21T16:50:03.507Z,13.07
2023-03-21T16:55:09.329Z,13.04
2023-03-21T17:00:19.810Z,13.05
2023-03-21T17:05:27.969Z,12.91
2023-03-21T17:10:34.250Z,12.80
2023-03-21T17:15:41.547Z,12.91
2023-03-21T17:20:47.018Z,12.94
2023-03-21T17:25:52.577Z,12.88
2023-03-21T17:30:58.014Z,12.79
2023-03-21T17:36:03.600Z,12.76
2023-03-21T17:41:12.229Z,12.73
2023-03-21T17:46:21.155Z,12.76
2023-03-21T17:51:28.359Z,12.78
2023-03-21T17:56:37.580Z,12.77
2023-03-21T18:01:43.223Z,12.75
2023-03-21T18:06:48.902Z,12.74
2023-03-21T18:11:54.373Z,12.72
2023-03-21T18:17:00.186Z,12.69
2023-03-21T18:22:06.306Z,12.67
2023-03-21T18:27:12.426Z,12.61
2023-03-21T18:32:17.973Z,12.55
2023-03-21T18:37:24.575Z,12.51
2023-03-21T18:42:31.102Z,12.43
2023-03-21T18:47:37.598Z,12.39
2023-03-21T18:52:43.863Z,12.74
2023-03-21T18:57:49.361Z,12.53
2023-03-21T19:03:12.956Z,12.34
2023-03-21T19:08:04.343Z,12.27
2023-03-21T19:13:09.893Z,12.23
2023-03-21T19:18:37.762Z,12.17
2023-03-21T19:23:23.146Z,12.02
2023-03-21T19:28:28.624Z,11.98
2023-03-21T19:33:34.744Z,11.83
2023-03-21T19:38:40.766Z,11.84
2023-03-21T19:43:54.300Z,11.84
2023-03-21T19:48:56.577Z,11.84
2023-03-21T19:54:06.168Z,11.91
2023-03-21T19:59:12.209Z,11.93
2023-03-21T20:04:18.087Z,11.93
2023-03-21T20:09:50.842Z,11.96
2023-03-21T20:14:31.470Z,12.07
2023-03-21T20:19:36.885Z,12.04
2023-03-21T20:24:43.246Z,12.08
2023-03-21T20:30:08.705Z,12.13
2023-03-21T20:35:07.984Z,12.10
2023-03-21T20:40:04.908Z,12.08
2023-03-21T20:45:15.312Z,12.02
2023-03-21T20:50:22.127Z,12.04
2023-03-21T20:55:29.571Z,12.03
2023-03-21T21:00:35.165Z,12.06
2023-03-21T21:05:42.671Z,12.01
2023-03-21T21:11:30.233Z,11.99
2023-03-21T21:15:58.441Z,12.04
2023-03-21T21:21:06.764Z,11.95
2023-03-21T21:26:13.071Z,11.90
2023-03-21T21:31:20.008Z,11.88
2023-03-21T21:36:26.067Z,11.80
2023-03-21T21:41:31.609Z,11.76
2023-03-21T21:46:38.252Z,11.82
2023-03-21T21:51:47.279Z,11.78
2023-03-21T21:56:54.379Z,11.78
2023-03-21T22:02:00.135Z,11.78
2023-03-21T22:07:06.246Z,11.65
2023-03-21T22:12:11.918Z,11.64
2023-03-21T22:17:17.487Z,11.68
2023-03-21T22:22:23.045Z,11.72
2023-03-21T22:27:28.446Z,11.76
2023-03-21T22:32:38.553Z,11.75
2023-03-21T22:37:44.504Z,11.72
2023-03-21T22:42:49.902Z,11.81
2023-03-21T22:47:55.505Z,11.82
2023-03-21T22:53:01.109Z,11.71
2023-03-21T22:58:07.053Z,11.66
2023-03-21T23:03:14.700Z,11.57
2023-03-21T23:08:20.179Z,11.59
2023-03-21T23:13:26.832Z,11.74
2023-03-21T23:18:32.620Z,11.78
2023-03-21T23:23:43.923Z,11.66
2023-03-21T23:28:49.881Z,11.69
2023-03-21T23:33:55.913Z,11.59
2023-03-21T23:39:01.419Z,11.58
2023-03-21T23:44:07.220Z,11.48
2023-03-21T23:49:12.641Z,11.48
2023-03-21T23:54:18.047Z,11.48
2023-03-21T23:59:23.655Z,11.31
